createdAt,value
2018-12-10T00:01:15.497Z,51.20
2018-12-10T00:03:44.275Z,51.50
2018-12-10T00:06:12.779Z,51.70
2018-12-10T00:08:41.454Z,51.50
2018-12-10T00:11:09.895Z,51.50
2018-12-10T00:13:38.479Z,51.50
2018-12-10T00:16:07.051Z,51.20
2018-12-10T00:18:35.732Z,51.50
2018-12-10T00:21:04.370Z,51.40
2018-12-10T00:23:33.076Z,51.40
2018-12-10T00:26:01.608Z,51.20
2018-12-10T00:28:30.113Z,51.50
2018-12-10T00:30:58.624Z,51.10
2018-12-10T00:33:27.144Z,51.40
2018-12-10T00:35:55.671Z,51.50
2018-12-10T00:38:26.438Z,51.50
2018-12-10T00:40:56.966Z,50.90
2018-12-10T00:43:26.601Z,51.10
2018-12-10T00:45:56.926Z,50.90
2018-12-10T00:48:27.018Z,51.10
2018-12-10T00:50:57.238Z,51.10
2018-12-10T00:53:28.158Z,50.90
2018-12-10T00:55:56.930Z,50.80
2018-12-10T00:58:25.346Z,50.80
2018-12-10T01:00:53.754Z,50.80
2018-12-10T01:03:22.153Z,50.70
2018-12-10T01:05:50.840Z,50.20
2018-12-10T01:08:19.259Z,50.70
2018-12-10T01:10:47.645Z,50.40
2018-12-10T01:13:16.080Z,50.20
2018-12-10T01:15:44.511Z,50.50
2018-12-10T01:18:12.862Z,50.50
2018-12-10T01:20:41.432Z,50.50
2018-12-10T01:23:09.824Z,50.70
2018-12-10T01:25:38.200Z,50.70
2018-12-10T01:28:06.658Z,50.50
2018-12-10T01:30:35.280Z,50.50
2018-12-10T01:33:03.704Z,50.50
2018-12-10T01:35:32.397Z,50.70
2018-12-10T01:38:01.085Z,50.80
2018-12-10T01:40:29.498Z,50.90
2018-12-10T01:42:57.928Z,51.20
2018-12-10T01:45:26.358Z,51.40
2018-12-10T01:47:54.765Z,51.20
2018-12-10T01:50:23.217Z,51.10
2018-12-10T01:52:51.573Z,50.90
2018-12-10T01:55:20.031Z,50.80
2018-12-10T01:57:48.339Z,50.90
2018-12-10T02:00:16.854Z,51.10
2018-12-10T02:02:45.262Z,50.70
2018-12-10T02:05:13.971Z,50.90
2018-12-10T02:07:42.346Z,50.90
2018-12-10T02:10:10.799Z,50.80
2018-12-10T02:12:39.141Z,51.10
2018-12-10T02:15:07.532Z,51.10
2018-12-10T02:17:36.272Z,51.20
2018-12-10T02:20:05.029Z,51.10
2018-12-10T02:22:33.447Z,51.20
2018-12-10T02:25:02.736Z,51.20
2018-12-10T02:27:31.233Z,51.10
2018-12-10T02:29:59.784Z,51.20
2018-12-10T02:32:28.298Z,51.10
2018-12-10T02:34:57.605Z,51.10
2018-12-10T02:37:26.271Z,51.10
2018-12-10T02:39:55.071Z,50.90
2018-12-10T02:42:23.456Z,50.80
2018-12-10T02:44:51.843Z,51.10
2018-12-10T02:47:20.605Z,51.10
2018-12-10T02:49:49.139Z,51.40
2018-12-10T02:52:17.513Z,51.50
2018-12-10T02:54:45.940Z,51.20
2018-12-10T02:57:14.350Z,51.20
2018-12-10T02:59:42.964Z,51.10
2018-12-10T03:02:11.375Z,51.20
2018-12-10T03:04:40.081Z,51.20
2018-12-10T03:07:08.842Z,51.20
2018-12-10T03:09:37.216Z,51.20
2018-12-10T03:12:05.699Z,51.10
2018-12-10T03:14:34.410Z,50.90
2018-12-10T03:17:02.785Z,51.10
2018-12-10T03:19:31.241Z,51.10
2018-12-10T03:21:59.951Z,51.20
2018-12-10T03:24:28.351Z,51.40
2018-12-10T03:26:56.748Z,51.50
2018-12-10T03:29:25.271Z,51.40
2018-12-10T03:31:53.976Z,51.10
2018-12-10T03:34:22.385Z,50.90
2018-12-10T03:36:50.793Z,50.80
2018-12-10T03:39:19.209Z,50.80
2018-12-10T03:41:47.555Z,50.90
2018-12-10T03:44:15.937Z,50.80
2018-12-10T03:46:44.335Z,51.10
2018-12-10T03:49:12.770Z,51.10
2018-12-10T03:51:41.509Z,50.70
2018-12-10T03:54:10.180Z,50.80
2018-12-10T03:56:38.557Z,50.80
2018-12-10T03:59:06.958Z,51.10
2018-12-10T04:01:35.386Z,50.80
2018-12-10T04:04:03.789Z,50.50
2018-12-10T04:06:32.196Z,50.70
2018-12-10T04:09:00.834Z,50.80
2018-12-10T04:11:29.465Z,51.20
2018-12-10T04:13:57.807Z,50.90
2018-12-10T04:16:26.423Z,50.80
2018-12-10T04:18:54.837Z,50.80
2018-12-10T04:21:23.611Z,51.10
2018-12-10T04:23:52.387Z,50.90
2018-12-10T04:26:20.848Z,50.90
2018-12-10T04:28:49.253Z,51.10
2018-12-10T04:31:17.645Z,50.90
2018-12-10T04:33:46.046Z,51.10
2018-12-10T04:36:14.485Z,50.90
2018-12-10T04:38:42.944Z,51.10
2018-12-10T04:41:11.525Z,50.90
2018-12-10T04:43:40.133Z,50.70
2018-12-10T04:46:08.542Z,50.50
2018-12-10T04:48:36.939Z,50.50
2018-12-10T04:51:05.251Z,50.50
2018-12-10T04:53:33.722Z,50.50
2018-12-10T04:56:02.095Z,50.40
2018-12-10T04:58:30.464Z,50.40
2018-12-10T05:00:59.218Z,50.20
2018-12-10T05:03:27.627Z,50.40
2018-12-10T05:05:55.989Z,50.10
2018-12-10T05:08:24.377Z,50.10
2018-12-10T05:10:52.746Z,49.80
2018-12-10T05:13:21.153Z,49.80
2018-12-10T05:15:49.639Z,49.90
2018-12-10T05:18:18.247Z,50.10
2018-12-10T05:20:47.311Z,49.80
2018-12-10T05:23:15.713Z,49.80
2018-12-10T05:25:44.333Z,49.60
2018-12-10T05:28:13.218Z,49.60
2018-12-10T05:30:41.869Z,49.80
2018-12-10T05:33:10.623Z,49.90
2018-12-10T05:38:14.019Z,49.90
2018-12-10T05:40:42.438Z,49.80
2018-12-10T05:43:10.916Z,49.80
2018-12-10T05:45:39.784Z,49.90
2018-12-10T05:48:08.408Z,49.80
2018-12-10T05:50:36.728Z,49.80
2018-12-10T05:53:05.123Z,49.30
2018-12-10T05:55:34.396Z,49.60
2018-12-10T05:58:02.928Z,49.60
2018-12-10T06:00:31.361Z,49.50
2018-12-10T06:02:59.836Z,49.30
2018-12-10T06:05:28.596Z,49.60
2018-12-10T06:07:57.936Z,49.80
2018-12-10T06:10:26.693Z,49.50
2018-12-10T06:12:55.212Z,49.50
2018-12-10T06:15:23.686Z,49.50
2018-12-10T06:17:52.132Z,49.50
2018-12-10T06:20:20.566Z,49.50
2018-12-10T06:22:49.075Z,49.50
2018-12-10T06:25:17.442Z,49.50
2018-12-10T06:27:46.851Z,49.30
2018-12-10T06:30:15.299Z,49.30
2018-12-10T06:32:43.801Z,49.50
2018-12-10T06:35:12.229Z,49.60
2018-12-10T06:37:41.243Z,49.80
2018-12-10T06:40:10.086Z,49.90
2018-12-10T06:42:38.597Z,49.90
2018-12-10T06:45:07.048Z,49.60
2018-12-10T06:47:35.465Z,49.90
2018-12-10T06:50:06.505Z,49.80
2018-12-10T06:52:34.970Z,49.90
2018-12-10T06:55:03.631Z,49.90
2018-12-10T06:57:32.055Z,49.90
2018-12-10T07:00:00.430Z,49.90
2018-12-10T07:02:28.912Z,49.90
2018-12-10T07:04:57.353Z,49.90
2018-12-10T07:07:25.745Z,49.60
2018-12-10T07:09:54.232Z,49.60
2018-12-10T07:12:22.645Z,49.50
2018-12-10T07:14:51.166Z,49.50
2018-12-10T07:17:19.849Z,49.80
2018-12-10T07:19:48.154Z,51.10
2018-12-10T07:22:16.478Z,51.20
2018-12-10T07:24:44.862Z,50.70
2018-12-10T07:27:13.275Z,50.50
2018-12-10T07:29:41.665Z,50.40
2018-12-10T07:32:10.073Z,50.40
2018-12-10T07:34:38.862Z,50.50
2018-12-10T07:37:07.348Z,50.80
2018-12-10T07:39:36.188Z,50.50
2018-12-10T07:42:05.371Z,50.70
2018-12-10T07:44:33.882Z,50.50
2018-12-10T07:47:03.886Z,50.20
2018-12-10T07:49:34.200Z,50.20
2018-12-10T07:52:10.552Z,49.80
2018-12-10T07:54:40.917Z,49.90
2018-12-10T07:57:09.361Z,50.10
2018-12-10T07:59:38.311Z,50.10
2018-12-10T08:02:06.901Z,50.40
2018-12-10T08:04:35.533Z,50.40
2018-12-10T08:07:03.951Z,50.40
2018-12-10T08:09:32.528Z,50.40
2018-12-10T08:12:00.918Z,50.10
2018-12-10T08:14:29.326Z,49.90
2018-12-10T08:16:57.761Z,49.60
2018-12-10T08:19:26.191Z,49.60
2018-12-10T08:21:54.910Z,49.60
2018-12-10T08:24:23.299Z,49.50
2018-12-10T08:26:51.718Z,49.60
2018-12-10T08:29:20.122Z,49.60
2018-12-10T08:31:48.852Z,49.80
2018-12-10T08:34:17.453Z,49.30
2018-12-10T08:36:45.873Z,48.70
2018-12-10T08:39:14.270Z,48.70
2018-12-10T08:41:42.670Z,48.70
2018-12-10T08:44:11.059Z,47.70
2018-12-10T08:46:39.477Z,47.40
2018-12-10T08:49:10.576Z,47.00
2018-12-10T08:51:41.387Z,46.50
2018-12-10T08:54:10.068Z,46.40
2018-12-10T08:56:38.482Z,45.80
2018-12-10T08:59:08.005Z,45.60
2018-12-10T09:01:36.483Z,45.00
2018-12-10T09:04:04.898Z,43.90
2018-12-10T09:06:33.504Z,43.00
2018-12-10T09:09:01.872Z,42.50
2018-12-10T09:11:30.265Z,41.80
2018-12-10T09:13:58.682Z,40.60
2018-12-10T09:16:27.061Z,39.70
2018-12-10T09:18:55.531Z,39.40
2018-12-10T09:21:24.590Z,39.40
2018-12-10T09:23:52.933Z,39.30
2018-12-10T09:26:21.301Z,38.20
2018-12-10T09:28:49.692Z,38.40
2018-12-10T09:31:18.082Z,38.10
2018-12-10T09:33:46.499Z,37.40
2018-12-10T09:36:14.856Z,37.40
2018-12-10T09:38:43.152Z,37.10
2018-12-10T09:41:11.540Z,36.50
2018-12-10T09:43:39.958Z,36.60
2018-12-10T09:46:08.330Z,36.80
2018-12-10T09:48:36.778Z,36.30
2018-12-10T09:51:05.481Z,36.00
2018-12-10T09:53:33.864Z,35.70
2018-12-10T09:56:02.603Z,35.70
2018-12-10T09:58:30.962Z,36.30
2018-12-10T10:00:59.414Z,36.60
2018-12-10T10:03:27.814Z,36.80
2018-12-10T10:05:56.117Z,37.20
2018-12-10T10:08:24.806Z,36.50
2018-12-10T10:10:53.210Z,36.00
2018-12-10T10:13:21.643Z,36.50
2018-12-10T10:15:50.450Z,36.80
2018-12-10T10:18:18.835Z,36.90
2018-12-10T10:20:47.515Z,37.60
2018-12-10T10:23:15.978Z,37.80
2018-12-10T10:25:44.333Z,38.50
2018-12-10T10:28:12.763Z,37.90
2018-12-10T10:30:43.919Z,37.20
2018-12-10T10:33:11.591Z,37.20
2018-12-10T10:35:40.044Z,36.60
2018-12-10T10:38:08.486Z,36.30
2018-12-10T10:40:36.879Z,36.30
2018-12-10T10:43:05.237Z,36.50
2018-12-10T10:45:34.941Z,36.80
2018-12-10T10:48:03.875Z,36.60
2018-12-10T10:50:32.575Z,36.50
2018-12-10T10:53:00.967Z,36.80
2018-12-10T10:55:29.336Z,36.90
2018-12-10T10:57:57.756Z,37.60
2018-12-10T11:00:31.689Z,37.60
2018-12-10T11:03:07.165Z,38.10
2018-12-10T11:05:35.594Z,38.40
2018-12-10T11:08:03.992Z,38.70
2018-12-10T11:10:32.706Z,39.40
2018-12-10T11:13:01.175Z,39.70
2018-12-10T11:15:29.754Z,40.20
2018-12-10T11:17:58.221Z,40.30
2018-12-10T11:20:26.945Z,40.00
2018-12-10T11:22:55.515Z,40.90
2018-12-10T11:25:24.177Z,41.50
2018-12-10T11:27:52.686Z,41.00
2018-12-10T11:30:21.343Z,40.60
2018-12-10T11:32:49.663Z,41.20
2018-12-10T11:35:18.242Z,41.00
2018-12-10T11:37:46.990Z,40.90
2018-12-10T11:40:15.678Z,41.20
2018-12-10T11:42:44.364Z,41.90
2018-12-10T11:45:12.933Z,41.50
2018-12-10T11:47:41.362Z,41.80
2018-12-10T11:50:09.879Z,42.20
2018-12-10T11:52:38.695Z,42.20
2018-12-10T11:55:07.779Z,42.20
2018-12-10T11:57:36.350Z,42.40
2018-12-10T12:00:07.612Z,42.40
2018-12-10T12:02:36.285Z,42.10
2018-12-10T12:05:05.420Z,42.50
2018-12-10T12:07:34.008Z,42.20
2018-12-10T12:10:02.904Z,42.50
2018-12-10T12:12:31.770Z,42.20
2018-12-10T12:15:00.271Z,42.40
2018-12-10T12:17:28.608Z,42.40
2018-12-10T12:19:58.552Z,42.70
2018-12-10T12:22:29.283Z,42.70
2018-12-10T12:24:57.779Z,42.80
2018-12-10T12:27:26.233Z,42.50
2018-12-10T12:29:57.201Z,42.50
2018-12-10T12:32:26.003Z,42.40
2018-12-10T12:34:54.654Z,42.40
2018-12-10T12:37:24.092Z,42.80
2018-12-10T12:39:54.081Z,42.40
2018-12-10T12:42:23.557Z,42.80
2018-12-10T12:44:55.551Z,42.50
2018-12-10T12:47:25.489Z,42.70
2018-12-10T12:49:54.059Z,42.80
2018-12-10T12:52:22.645Z,43.00
2018-12-10T12:54:51.166Z,43.30
2018-12-10T12:57:19.687Z,43.40
2018-12-10T12:59:48.110Z,43.60
2018-12-10T13:02:16.987Z,44.10
2018-12-10T13:04:45.412Z,44.70
2018-12-10T13:07:14.070Z,45.80
2018-12-10T13:09:42.677Z,46.20
2018-12-10T13:12:11.313Z,46.50
2018-12-10T13:14:39.819Z,47.50
2018-12-10T13:17:08.358Z,47.00
2018-12-10T13:19:36.888Z,46.70
2018-12-10T13:22:05.420Z,46.50
2018-12-10T13:24:35.785Z,45.90
2018-12-10T13:27:04.536Z,45.80
2018-12-10T13:29:33.117Z,45.80
2018-12-10T13:32:01.539Z,45.30
2018-12-10T13:34:30.715Z,44.90
2018-12-10T13:36:59.314Z,44.60
2018-12-10T13:39:27.799Z,44.40
2018-12-10T13:41:56.138Z,44.10
2018-12-10T13:44:24.478Z,44.10
2018-12-10T13:46:53.209Z,43.90
2018-12-10T13:49:21.582Z,44.00
2018-12-10T13:51:50.617Z,44.10
2018-12-10T13:54:19.040Z,44.40
2018-12-10T13:56:47.431Z,44.10
2018-12-10T13:59:15.830Z,44.30
2018-12-10T14:01:44.197Z,44.10
2018-12-10T14:04:13.128Z,44.10
2018-12-10T14:06:41.567Z,44.10
2018-12-10T14:09:10.232Z,44.30
2018-12-10T14:11:38.631Z,44.10
2018-12-10T14:14:06.991Z,44.40
2018-12-10T14:16:35.685Z,44.70
2018-12-10T14:19:04.151Z,44.60
2018-12-10T14:21:32.546Z,44.60
2018-12-10T14:24:00.923Z,45.20
2018-12-10T14:26:29.717Z,45.60
2018-12-10T14:28:58.223Z,45.20
2018-12-10T14:31:27.458Z,44.90
2018-12-10T14:33:58.012Z,45.80
2018-12-10T14:36:26.512Z,48.60
2018-12-10T14:38:54.946Z,47.30
2018-12-10T14:41:23.411Z,47.00
2018-12-10T14:43:52.154Z,45.90
2018-12-10T14:46:20.680Z,45.50
2018-12-10T14:48:49.079Z,45.30
2018-12-10T14:51:17.574Z,45.20
2018-12-10T14:53:46.098Z,45.00
2018-12-10T14:56:14.626Z,45.20
2018-12-10T14:58:43.340Z,45.30
2018-12-10T15:01:11.740Z,45.00
2018-12-10T15:03:40.528Z,45.00
2018-12-10T15:06:09.106Z,45.30
2018-12-10T15:08:37.766Z,45.30
2018-12-10T15:11:06.470Z,45.60
2018-12-10T15:13:35.253Z,45.80
2018-12-10T15:16:03.665Z,46.20
2018-12-10T15:18:32.133Z,46.50
2018-12-10T15:21:00.580Z,46.40
2018-12-10T15:23:29.183Z,46.50
2018-12-10T15:25:57.575Z,46.70
2018-12-10T15:28:25.919Z,46.80
2018-12-10T15:30:54.400Z,46.70
2018-12-10T15:33:22.770Z,46.80
2018-12-10T15:35:51.177Z,46.80
2018-12-10T15:38:19.620Z,47.00
2018-12-10T15:40:48.898Z,47.10
2018-12-10T15:43:17.340Z,47.00
2018-12-10T15:45:47.903Z,47.10
2018-12-10T15:48:16.450Z,47.30
2018-12-10T15:50:44.917Z,47.30
2018-12-10T15:53:13.268Z,47.30
2018-12-10T15:55:41.574Z,47.30
2018-12-10T15:58:10.150Z,47.50
2018-12-10T16:00:38.844Z,47.40
2018-12-10T16:03:07.227Z,47.40
2018-12-10T16:05:35.726Z,47.50
2018-12-10T16:08:04.492Z,47.80
2018-12-10T16:10:33.305Z,47.70
2018-12-10T16:13:01.964Z,47.70
2018-12-10T16:15:30.344Z,47.80
2018-12-10T16:17:59.487Z,47.70
2018-12-10T16:20:29.164Z,47.50
2018-12-10T16:22:59.588Z,47.50
2018-12-10T16:25:28.884Z,47.50
2018-12-10T16:27:57.568Z,47.70
2018-12-10T16:30:26.656Z,47.80
2018-12-10T16:32:55.420Z,47.70
2018-12-10T16:35:23.911Z,47.80
2018-12-10T16:37:52.346Z,47.80
2018-12-10T16:40:21.099Z,48.00
2018-12-10T16:42:49.564Z,48.10
2018-12-10T16:45:17.973Z,48.40
2018-12-10T16:47:46.438Z,48.60
2018-12-10T16:50:14.851Z,48.40
2018-12-10T16:52:43.171Z,48.40
2018-12-10T16:55:11.596Z,48.60
2018-12-10T16:57:40.034Z,48.70
2018-12-10T17:00:10.618Z,48.70
2018-12-10T17:02:40.402Z,49.20
2018-12-10T17:05:08.995Z,49.20
2018-12-10T17:07:37.419Z,49.50
2018-12-10T17:10:06.963Z,49.80
2018-12-10T17:12:35.644Z,50.20
2018-12-10T17:15:04.836Z,50.40
2018-12-10T17:17:33.948Z,50.40
2018-12-10T17:20:03.151Z,50.40
2018-12-10T17:22:31.599Z,50.40
2018-12-10T17:25:00.149Z,50.50
2018-12-10T17:27:28.602Z,50.50
2018-12-10T17:29:57.030Z,50.70
2018-12-10T17:32:25.417Z,50.50
2018-12-10T17:34:53.905Z,50.70
2018-12-10T17:37:22.352Z,50.70
2018-12-10T17:39:50.947Z,50.80
2018-12-10T17:42:19.455Z,50.80
2018-12-10T17:44:48.044Z,50.80
2018-12-10T17:47:16.440Z,50.70
2018-12-10T17:49:45.065Z,50.70
2018-12-10T17:52:13.581Z,50.80
2018-12-10T17:54:42.398Z,51.10
2018-12-10T17:57:10.769Z,51.10
2018-12-10T17:59:39.508Z,50.90
2018-12-10T18:02:08.239Z,50.90
2018-12-10T18:04:36.697Z,51.20
2018-12-10T18:07:05.282Z,51.50
2018-12-10T18:09:34.341Z,51.10
2018-12-10T18:12:03.087Z,51.20
2018-12-10T18:14:31.547Z,51.50
2018-12-10T18:17:00.129Z,51.40
2018-12-10T18:19:28.512Z,51.40
2018-12-10T18:21:57.209Z,51.40
2018-12-10T18:24:26.054Z,51.10
2018-12-10T18:26:54.564Z,51.40
2018-12-10T18:29:23.020Z,51.40
2018-12-10T18:31:51.587Z,51.20
2018-12-10T18:34:20.003Z,51.40
2018-12-10T18:36:49.106Z,51.40
2018-12-10T18:39:17.599Z,51.50
2018-12-10T18:41:46.192Z,51.40
2018-12-10T18:44:14.674Z,51.40
2018-12-10T18:46:43.114Z,54.80
2018-12-10T18:49:11.857Z,57.40
2018-12-10T18:51:40.401Z,54.80
2018-12-10T18:54:08.847Z,53.80
2018-12-10T18:56:37.290Z,53.20
2018-12-10T18:59:05.684Z,52.30
2018-12-10T19:01:34.067Z,52.00
2018-12-10T19:04:03.110Z,51.70
2018-12-10T19:06:31.784Z,51.40
2018-12-10T19:09:00.817Z,51.10
2018-12-10T19:11:29.843Z,51.20
2018-12-10T19:13:58.873Z,50.90
2018-12-10T19:16:27.586Z,51.20
2018-12-10T19:18:55.988Z,51.40
2018-12-10T19:21:24.671Z,51.20
2018-12-10T19:23:53.538Z,51.40
2018-12-10T19:26:21.901Z,51.80
2018-12-10T19:28:50.379Z,52.40
2018-12-10T19:31:19.161Z,53.00
2018-12-10T19:33:47.945Z,52.90
2018-12-10T19:36:16.455Z,52.60
2018-12-10T19:38:44.863Z,52.30
2018-12-10T19:41:13.313Z,52.30
2018-12-10T19:43:41.989Z,52.10
2018-12-10T19:46:10.608Z,52.30
2018-12-10T19:48:39.104Z,52.40
2018-12-10T19:51:07.672Z,52.40
2018-12-10T19:53:36.435Z,52.30
2018-12-10T19:56:04.864Z,52.40
2018-12-10T19:58:33.236Z,52.60
2018-12-10T20:01:01.768Z,52.60
2018-12-10T20:03:30.504Z,52.40
2018-12-10T20:06:05.022Z,52.70
2018-12-10T20:08:34.888Z,52.90
2018-12-10T20:11:04.066Z,52.90
2018-12-10T20:13:33.336Z,53.00
2018-12-10T20:16:02.172Z,53.00
2018-12-10T20:18:30.668Z,52.90
2018-12-10T20:20:59.101Z,52.90
2018-12-10T20:23:27.716Z,53.20
2018-12-10T20:25:56.200Z,53.20
2018-12-10T20:28:24.827Z,53.20
2018-12-10T20:30:53.894Z,53.30
2018-12-10T20:33:22.608Z,53.60
2018-12-10T20:35:51.088Z,53.80
2018-12-10T20:38:20.105Z,53.80
2018-12-10T20:40:50.403Z,53.60
2018-12-10T20:43:19.295Z,53.60
2018-12-10T20:45:48.019Z,53.30
2018-12-10T20:48:18.108Z,53.20
2018-12-10T20:50:48.032Z,53.20
2018-12-10T20:53:17.736Z,53.00
2018-12-10T20:55:46.466Z,52.90
2018-12-10T20:58:15.279Z,52.70
2018-12-10T21:00:44.191Z,52.90
2018-12-10T21:03:15.898Z,52.90
2018-12-10T21:08:51.342Z,53.00
2018-12-10T21:11:23.375Z,52.90
2018-12-10T21:13:54.059Z,52.90
2018-12-10T21:16:22.721Z,52.90
2018-12-10T21:18:51.952Z,53.00
2018-12-10T21:21:20.472Z,53.50
2018-12-10T21:23:48.850Z,53.30
2018-12-10T21:26:20.749Z,53.30
2018-12-10T21:28:58.859Z,53.20
2018-12-10T21:31:31.035Z,52.90
2018-12-10T21:33:59.507Z,52.60
2018-12-10T21:36:27.904Z,52.30
2018-12-10T21:38:56.333Z,52.10
2018-12-10T21:41:24.761Z,52.10
2018-12-10T21:43:53.165Z,52.00
2018-12-10T21:46:21.560Z,52.30
2018-12-10T21:48:49.923Z,52.10
2018-12-10T21:51:18.359Z,52.00
2018-12-10T21:53:46.810Z,52.00
2018-12-10T21:56:15.224Z,52.10
2018-12-10T21:58:43.699Z,52.10
2018-12-10T22:01:12.415Z,52.10
2018-12-10T22:03:40.797Z,52.70
2018-12-10T22:06:09.488Z,53.00
2018-12-10T22:08:37.800Z,52.70
2018-12-10T22:11:06.530Z,52.30
2018-12-10T22:13:35.037Z,52.30
2018-12-10T22:16:03.701Z,52.40
2018-12-10T22:18:32.085Z,52.70
2018-12-10T22:21:00.477Z,52.90
2018-12-10T22:23:29.156Z,52.90
2018-12-10T22:25:57.825Z,52.60
2018-12-10T22:28:26.246Z,52.40
2018-12-10T22:30:54.609Z,52.40
2018-12-10T22:33:23.009Z,52.70
2018-12-10T22:35:51.523Z,52.90
2018-12-10T22:38:20.242Z,52.90
2018-12-10T22:40:48.661Z,52.70
2018-12-10T22:43:17.079Z,52.40
2018-12-10T22:45:45.490Z,52.30
2018-12-10T22:48:13.801Z,52.10
2018-12-10T22:50:42.218Z,52.30
2018-12-10T22:53:10.627Z,52.30
2018-12-10T22:55:39.006Z,52.70
2018-12-10T22:58:07.526Z,52.40
2018-12-10T23:00:42.255Z,52.70
2018-12-10T23:03:11.067Z,52.70
2018-12-10T23:05:39.612Z,52.70
2018-12-10T23:08:08.042Z,52.90
2018-12-10T23:10:36.450Z,52.90
2018-12-10T23:13:04.866Z,52.40
2018-12-10T23:15:33.529Z,52.40
2018-12-10T23:18:02.279Z,52.70
2018-12-10T23:20:30.777Z,52.40
2018-12-10T23:22:59.133Z,52.70
2018-12-10T23:25:27.525Z,52.70
2018-12-10T23:27:55.946Z,52.70
2018-12-10T23:30:24.385Z,52.40
2018-12-10T23:32:52.785Z,52.10
2018-12-10T23:35:21.226Z,52.10
2018-12-10T23:37:49.602Z,51.80
2018-12-10T23:40:18.390Z,51.70
2018-12-10T23:42:52.916Z,51.50
2018-12-10T23:45:21.318Z,51.70
2018-12-10T23:47:49.700Z,51.50
2018-12-10T23:50:18.837Z,51.70
2018-12-10T23:52:47.226Z,51.50
2018-12-10T23:55:16.159Z,51.70
2018-12-10T23:57:44.669Z,51.70
